Time;durP1;ratioP1;P1;durP2;ratioP2;P2;SDS_P1;SDS_P2;PMS_P1;PMS_P2;Temp;Humidity;BMP_temperature;BMP_pressure;BME280_temperature;BME280_humidity;BME280_pressure;Samples;Min_cycle;Max_cycle;Signal;HPM_P1;HPM_P2
2022/03/24 00:02:35;;;;;;;;;;;;;;;19.98;26.80;101639.94;104139;1311;71619;-80
2022/03/24 00:05:28;;;;;;;;;;;;;;;19.98;26.89;101633.18;104084;1311;75772;-78
2022/03/24 00:07:55;;;;;;;;;;;;;;;19.98;26.80;101628.01;103976;1313;61309;-80
2022/03/24 00:10:33;;;;;;;;;;;;;;;19.97;26.75;101629.63;103948;1314;61344;-82
2022/03/24 00:12:59;;;;;;;;;;;;;;;19.98;26.85;101624.98;103962;1311;74805;-80
2022/03/24 00:15:53;;;;;;;;;;;;;;;19.97;26.86;101625.52;104027;1311;74713;-81
2022/03/24 00:18:25;;;;;;;;;;;;;;;19.96;26.87;101621.11;104116;1311;61237;-81
2022/03/24 00:20:56;;;;;;;;;;;;;;;19.96;26.86;101617.52;104024;1313;60617;-81
2022/03/24 00:23:36;;;;;;;;;;;;;;;19.96;26.91;101616.28;104095;1311;73709;-82
2022/03/24 00:26:21;;;;;;;;;;;;;;;19.96;26.93;101614.52;103980;1311;75898;-79
2022/03/24 00:29:27;;;;;;;;;;;;;;;;;;;;;
2022/03/24 00:31:58;;;;;;;;;;;;;;;19.95;26.88;101608.48;103156;1320;61226;-80
2022/03/24 00:34:29;;;;;;;;;;;;;;;19.95;26.92;101601.88;103076;1320;72952;-80
2022/03/24 00:36:55;;;;;;;;;;;;;;;19.95;26.92;101599.92;103159;1320;74982;-80
2022/03/24 00:39:33;;;;;;;;;;;;;;;19.95;26.89;101593.33;103214;1314;61318;-82
2022/03/24 00:42:11;;;;;;;;;;;;;;;19.95;26.99;101591.00;103956;1314;61560;-82
2022/03/24 00:44:49;;;;;;;;;;;;;;;19.94;26.99;101587.09;104041;1314;72760;-82
2022/03/24 00:47:35;;;;;;;;;;;;;;;19.94;26.98;101585.66;103767;1314;74888;-82
2022/03/24 00:50:29;;;;;;;;;;;;;;;19.94;27.03;101576.02;103997;1314;61442;-82
2022/03/24 00:53:02;;;;;;;;;;;;;;;19.94;27.04;101573.17;103936;1314;61339;-80
2022/03/24 00:55:39;;;;;;;;;;;;;;;19.94;27.08;101569.60;103985;1314;72021;-80
2022/03/24 00:58:08;;;;;;;;;;;;;;;19.93;26.95;101564.96;103923;1314;75608;-80
2022/03/24 01:00:43;;;;;;;;;;;;;;;19.94;27.06;101560.14;103981;1314;61345;-80
2022/03/24 01:03:12;;;;;;;;;;;;;;;19.94;27.04;101556.91;104029;1314;61314;-80
2022/03/24 01:05:53;;;;;;;;;;;;;;;19.94;27.11;101552.45;104024;1306;72941;-81
2022/03/24 01:08:24;;;;;;;;;;;;;;;19.94;27.01;101551.73;104641;1305;61303;-81
2022/03/24 01:11:20;;;;;;;;;;;;;;;19.93;27.06;101545.33;104446;1305;61299;-81
2022/03/24 01:14:04;;;;;;;;;;;;;;;19.93;27.16;101540.69;104524;1305;61166;-82
2022/03/24 01:16:31;;;;;;;;;;;;;;;19.93;27.15;101533.38;104408;1307;73889;-82
2022/03/24 01:19:23;;;;;;;;;;;;;;;19.93;27.12;101528.38;104328;1308;75049;-80
2022/03/24 01:21:56;;;;;;;;;;;;;;;19.92;27.20;101521.60;104567;1305;61423;-81
2022/03/24 01:24:52;;;;;;;;;;;;;;;19.92;27.15;101516.98;104396;1307;61157;-83
2022/03/24 01:27:49;;;;;;;;;;;;;;;19.92;27.14;101515.55;104164;1309;72427;-81
2022/03/24 01:30:38;;;;;;;;;;;;;;;19.92;27.12;101513.95;104201;1309;75210;-80
2022/03/24 01:33:04;;;;;;;;;;;;;;;19.92;27.18;101509.48;104231;1310;61268;-82
2022/03/24 01:35:43;;;;;;;;;;;;;;;19.92;27.04;101508.95;104216;1311;61569;-82
2022/03/24 01:38:11;;;;;;;;;;;;;;;19.92;27.22;101504.85;104193;1312;74219;-80
2022/03/24 01:40:37;;;;;;;;;;;;;;;19.92;27.06;101504.30;104198;1310;74869;-80
2022/03/24 01:43:20;;;;;;;;;;;;;;;19.92;27.12;101501.82;104165;1311;60299;-81
2022/03/24 01:45:49;;;;;;;;;;;;;;;19.92;27.25;101498.07;104140;1309;61156;-81
2022/03/24 01:48:45;;;;;;;;;;;;;;;19.92;27.16;101492.18;104164;1309;74173;-83
2022/03/24 01:51:43;;;;;;;;;;;;;;;19.91;27.23;101486.33;102608;1324;76327;-82
2022/03/24 01:54:28;;;;;;;;;;;;;;;19.91;27.26;101485.27;102676;1325;61327;-78
2022/03/24 01:56:59;;;;;;;;;;;;;;;19.91;27.19;101487.39;102731;1326;61669;-81
2022/03/24 01:59:49;;;;;;;;;;;;;;;19.91;27.28;101482.21;102633;1325;72881;-82
2022/03/24 02:02:18;;;;;;;;;;;;;;;19.91;27.29;101481.48;102610;1325;74925;-80
2022/03/24 02:04:49;;;;;;;;;;;;;;;19.91;27.25;101480.23;102781;1322;62321;-83
2022/03/24 02:07:36;;;;;;;;;;;;;;;19.91;27.30;101479.55;102918;1322;61428;-83
2022/03/24 02:10:11;;;;;;;;;;;;;;;19.90;27.39;101478.13;103067;1322;73309;-80
2022/03/24 02:12:47;;;;;;;;;;;;;;;19.90;27.34;101474.38;102939;1322;74854;-81
2022/03/24 02:15:35;;;;;;;;;;;;;;;19.90;27.39;101474.21;103098;1322;61360;-81
2022/03/24 02:36:06;;;;;;;;;;;;;;;19.89;27.41;101459.83;104510;1305;71436;-80
2022/03/24 02:38:51;;;;;;;;;;;;;;;;;;;;;
2022/03/24 02:42:06;;;;;;;;;;;;;;;19.88;27.48;101452.52;104720;1305;60221;-80
2022/03/24 02:45:00;;;;;;;;;;;;;;;19.89;27.53;101457.17;104151;1311;61245;-83
2022/03/24 02:47:48;;;;;;;;;;;;;;;19.88;27.52;101456.82;104152;1312;72694;-82
2022/03/24 02:50:21;;;;;;;;;;;;;;;19.88;27.50;101455.58;104228;1310;74539;-81
2022/03/24 02:53:17;;;;;;;;;;;;;;;19.88;27.61;101450.75;104165;1312;61243;-80
2022/03/24 02:56:09;;;;;;;;;;;;;;;19.88;27.53;101450.05;104073;1313;61321;-82
2022/03/24 02:58:43;;;;;;;;;;;;;;;19.88;27.48;101447.73;104133;1311;74063;-81
2022/03/24 03:01:28;;;;;;;;;;;;;;;;;;;;;
2022/03/24 03:04:21;;;;;;;;;;;;;;;19.88;27.67;101447.39;104118;1311;61174;-81
2022/03/24 03:06:47;;;;;;;;;;;;;;;19.88;27.61;101448.96;104030;1314;61082;-80
2022/03/24 03:09:32;;;;;;;;;;;;;;;19.88;27.53;101447.39;104102;1311;72754;-82
2022/03/24 03:12:10;;;;;;;;;;;;;;;19.88;27.58;101449.17;104175;1311;75881;-81
2022/03/24 03:14:58;;;;;;;;;;;;;;;19.88;27.69;101445.59;104090;1311;61708;-84
2022/03/24 03:17:31;;;;;;;;;;;;;;;19.88;27.73;101447.05;104128;1311;61189;-81
2022/03/24 03:20:08;;;;;;;;;;;;;;;19.87;27.73;101449.37;104056;1313;73777;-82
2022/03/24 03:22:56;;;;;;;;;;;;;;;;;;;;;
2022/03/24 03:25:34;;;;;;;;;;;;;;;19.87;27.85;101449.21;104643;1305;61208;-81
2022/03/24 03:28:20;;;;;;;;;;;;;;;19.87;27.66;101450.45;104585;1305;61201;-81
2022/03/24 03:31:11;;;;;;;;;;;;;;;;;;;;;
2022/03/24 03:33:36;;;;;;;;;;;;;;;19.87;27.62;101446.90;104331;1306;74805;-83
2022/03/24 03:36:14;;;;;;;;;;;;;;;19.87;27.69;101443.33;104461;1305;60177;-79
2022/03/24 03:38:43;;;;;;;;;;;;;;;19.86;27.86;101445.84;104493;1305;61603;-83
2022/03/24 03:41:14;;;;;;;;;;;;;;;19.86;27.83;101442.81;104357;1305;74088;-83
2022/03/24 03:43:55;;;;;;;;;;;;;;;19.86;27.82;101441.94;104392;1305;76589;-81
2022/03/24 03:46:48;;;;;;;;;;;;;;;19.86;27.89;101442.48;104555;1305;60400;-80
2022/03/24 03:49:34;;;;;;;;;;;;;;;19.85;27.92;101442.17;104252;1306;61477;-83
2022/03/24 03:52:11;;;;;;;;;;;;;;;19.85;27.87;101441.64;104391;1306;73709;-81
2022/03/24 03:54:47;;;;;;;;;;;;;;;;;;;;;
2022/03/24 03:57:50;;;;;;;;;;;;;;;19.85;27.99;101440.05;104468;1306;61276;-79
2022/03/24 04:00:53;;;;;;;;;;;;;;;19.85;27.88;101440.22;104492;1306;61263;-79
2022/03/24 04:03:19;;;;;;;;;;;;;;;19.85;27.96;101434.70;104533;1305;72969;-80
2022/03/24 04:06:06;;;;;;;;;;;;;;;19.85;27.80;101434.52;104440;1306;61219;-82
2022/03/24 04:08:42;;;;;;;;;;;;;;;;;;;;;
2022/03/24 04:11:35;;;;;;;;;;;;;;;19.84;28.00;101430.95;104416;1306;61145;-83
2022/03/24 04:14:14;;;;;;;;;;;;;;;19.84;28.02;101427.04;104419;1308;74082;-81
2022/03/24 04:16:49;;;;;;;;;;;;;;;19.84;27.84;101425.26;104564;1305;74819;-83
2022/03/24 04:19:15;;;;;;;;;;;;;;;19.84;27.96;101424.74;104575;1305;61525;-82
2022/03/24 04:22:02;;;;;;;;;;;;;;;;;;;;;
2022/03/24 04:24:28;;;;;;;;;;;;;;;19.84;27.95;101425.27;104350;1307;72998;-82
2022/03/24 04:27:19;;;;;;;;;;;;;;;19.84;27.95;101420.27;104181;1311;73007;-81
2022/03/24 04:29:45;;;;;;;;;;;;;;;19.84;28.04;101422.95;103777;1312;61298;-81
2022/03/24 04:32:22;;;;;;;;;;;;;;;19.84;27.99;101421.89;104012;1313;61898;-80
2022/03/24 04:35:01;;;;;;;;;;;;;;;19.83;28.07;101424.39;104078;1311;73201;-80
2022/03/24 04:37:32;;;;;;;;;;;;;;;19.84;28.10;101425.64;104110;1311;75701;-79
2022/03/24 04:40:01;;;;;;;;;;;;;;;19.84;28.15;101419.18;104188;1311;61330;-81
2022/03/24 04:43:03;;;;;;;;;;;;;;;;;;;;;
2022/03/24 04:45:38;;;;;;;;;;;;;;;19.84;28.11;101420.45;104208;1311;72689;-78
2022/03/24 04:48:37;;;;;;;;;;;;;;;;;;;;;
2022/03/24 04:51:17;;;;;;;;;;;;;;;19.85;28.18;101421.48;104173;1311;61305;-80
2022/03/24 04:54:06;;;;;;;;;;;;;;;19.85;27.94;101421.27;104233;1311;61180;-81
2022/03/24 04:56:44;;;;;;;;;;;;;;;19.85;28.04;101424.11;104137;1311;72788;-81
2022/03/24 04:59:33;;;;;;;;;;;;;;;19.86;28.03;101421.60;104224;1311;74698;-83
2022/03/24 05:02:19;;;;;;;;;;;;;;;;;;;;;
2022/03/24 05:04:58;;;;;;;;;;;;;;;;;;;;;
2022/03/24 05:07:55;;;;;;;;;;;;;;;19.86;27.98;101418.91;104306;1306;71499;-81
2022/03/24 05:10:58;;;;;;;;;;;;;;;19.86;28.01;101421.55;104351;1306;73607;-84
2022/03/24 05:13:29;;;;;;;;;;;;;;;19.86;27.99;101419.93;104420;1305;60190;-86
2022/03/24 05:16:18;;;;;;;;;;;;;;;19.86;28.15;101417.79;104577;1305;61437;-81
2022/03/24 05:19:04;;;;;;;;;;;;;;;19.87;28.08;101415.10;104369;1308;74128;-80
2022/03/24 05:21:31;;;;;;;;;;;;;;;19.86;28.08;101418.71;104359;1307;75947;-84
2022/03/24 05:24:14;;;;;;;;;;;;;;;19.86;27.96;101420.31;104437;1306;61396;-83
2022/03/24 05:26:50;;;;;;;;;;;;;;;19.87;28.19;101416.18;104280;1305;61208;-82
2022/03/24 05:29:36;;;;;;;;;;;;;;;19.87;27.92;101418.13;104311;1305;72029;-80
2022/03/24 05:32:15;;;;;;;;;;;;;;;19.87;28.11;101418.84;104223;1307;76362;-81
2022/03/24 05:34:50;;;;;;;;;;;;;;;19.87;28.05;101419.52;104247;1305;61340;-80
2022/03/24 05:37:18;;;;;;;;;;;;;;;19.87;27.97;101416.51;104405;1305;61278;-80
2022/03/24 05:39:43;;;;;;;;;;;;;;;19.87;27.74;101416.71;104283;1305;62117;-80
2022/03/24 05:42:12;;;;;;;;;;;;;;;19.86;27.63;101417.26;104014;1306;61226;-80
2022/03/24 05:44:38;;;;;;;;;;;;;;;19.86;27.52;101416.23;104332;1307;61376;-80
2022/03/24 05:47:04;;;;;;;;;;;;;;;19.85;27.23;101416.10;104315;1305;61252;-80
2022/03/24 05:49:32;;;;;;;;;;;;;;;19.85;27.25;101417.72;104203;1308;61287;-80
2022/03/24 05:51:58;;;;;;;;;;;;;;;19.83;27.15;101420.65;104063;1306;75924;-81
2022/03/24 05:54:24;;;;;;;;;;;;;;;19.83;26.94;101422.85;104074;1305;60133;-79
2022/03/24 05:56:57;;;;;;;;;;;;;;;19.81;26.86;101421.34;104234;1305;63151;-79
2022/03/24 05:59:23;;;;;;;;;;;;;;;19.79;26.76;101421.08;103996;1306;73425;-81
2022/03/24 06:01:48;;;;;;;;;;;;;;;19.74;26.64;101418.45;104534;1305;61323;-81
2022/03/24 06:04:15;;;;;;;;;;;;;;;19.72;26.43;101421.09;104351;1305;60004;-81
2022/03/24 06:06:42;;;;;;;;;;;;;;;19.70;26.39;101420.46;104424;1305;60778;-79
2022/03/24 06:09:07;;;;;;;;;;;;;;;19.70;26.43;101420.45;104435;1305;59851;-80
2022/03/24 06:11:36;;;;;;;;;;;;;;;19.72;26.23;101421.41;104233;1306;61261;-80
2022/03/24 06:14:07;;;;;;;;;;;;;;;19.72;26.16;101419.33;104385;1308;61255;-80
2022/03/24 06:16:37;;;;;;;;;;;;;;;19.73;26.16;101419.25;104271;1308;60534;-82
2022/03/24 06:19:04;;;;;;;;;;;;;;;19.74;26.15;101417.77;104392;1306;73821;-81
2022/03/24 06:21:29;;;;;;;;;;;;;;;19.75;25.90;101414.45;104282;1305;61272;-79
2022/03/24 06:23:55;;;;;;;;;;;;;;;19.77;26.04;101413.48;104548;1304;63322;-79
2022/03/24 06:26:21;;;;;;;;;;;;;;;19.78;26.07;101413.95;104399;1305;61258;-80
2022/03/24 06:28:47;;;;;;;;;;;;;;;19.80;25.86;101412.08;104416;1305;61272;-81
2022/03/24 06:31:12;;;;;;;;;;;;;;;19.83;25.88;101415.17;104607;1308;61374;-80
2022/03/24 06:33:38;;;;;;;;;;;;;;;19.85;25.69;101415.55;104078;1308;61259;-80
2022/03/24 06:36:04;;;;;;;;;;;;;;;19.89;25.65;101416.61;104112;1307;61296;-83
2022/03/24 06:38:30;;;;;;;;;;;;;;;19.93;25.55;101418.70;104236;1305;61293;-80
2022/03/24 06:41:01;;;;;;;;;;;;;;;19.95;25.45;101419.10;104200;1305;61343;-79
2022/03/24 06:43:27;;;;;;;;;;;;;;;19.98;25.38;101420.02;104163;1307;74851;-80
2022/03/24 06:46:04;;;;;;;;;;;;;;;20.00;25.32;101420.77;103958;1305;379422;-81
2022/03/24 06:48:30;;;;;;;;;;;;;;;20.03;25.42;101420.42;104719;1305;61453;-80
2022/03/24 06:50:55;;;;;;;;;;;;;;;20.05;25.45;101420.30;104308;1305;61419;-82
2022/03/24 06:53:22;;;;;;;;;;;;;;;20.08;25.19;101419.45;104351;1306;60690;-79
2022/03/24 06:55:50;;;;;;;;;;;;;;;20.10;25.16;101419.86;104138;1305;60688;-81
2022/03/24 06:58:25;;;;;;;;;;;;;;;20.10;25.05;101422.17;104377;1305;59445;-82
2022/03/24 07:00:54;;;;;;;;;;;;;;;20.08;25.08;101423.20;104224;1306;73884;-79
2022/03/24 07:03:21;;;;;;;;;;;;;;;20.05;24.83;101418.36;104401;1305;75325;-81
2022/03/24 07:05:48;;;;;;;;;;;;;;;20.05;24.90;101414.95;104425;1305;60637;-82
2022/03/24 07:08:14;;;;;;;;;;;;;;;20.09;24.95;101410.09;104447;1305;61183;-80
2022/03/24 07:10:39;;;;;;;;;;;;;;;20.13;24.83;101406.98;104110;1305;61525;-81
2022/03/24 07:13:05;;;;;;;;;;;;;;;20.17;24.80;101408.23;104107;1308;63467;-79
2022/03/24 07:15:31;;;;;;;;;;;;;;;20.20;24.93;101406.25;103906;1307;61388;-80
2022/03/24 07:17:57;;;;;;;;;;;;;;;20.25;25.02;101410.06;103739;1305;61325;-80
2022/03/24 07:20:24;;;;;;;;;;;;;;;20.29;25.00;101408.61;103759;1307;61430;-80
2022/03/24 07:23:01;;;;;;;;;;;;;;;20.32;24.90;101411.30;103814;1308;73887;-83
2022/03/24 07:25:31;;;;;;;;;;;;;;;20.34;24.91;101412.96;104523;1305;75877;-80
2022/03/24 07:27:57;;;;;;;;;;;;;;;20.36;24.77;101415.34;104101;1308;59881;-82
2022/03/24 07:30:23;;;;;;;;;;;;;;;20.39;24.78;101416.05;103914;1305;61433;-82
2022/03/24 07:32:49;;;;;;;;;;;;;;;20.41;24.59;101412.55;103906;1305;61312;-79
2022/03/24 07:35:18;;;;;;;;;;;;;;;20.42;24.68;101413.92;103953;1308;61169;-80
2022/03/24 07:37:47;;;;;;;;;;;;;;;20.44;24.54;101416.14;104215;1305;61156;-80
2022/03/24 07:40:14;;;;;;;;;;;;;;;20.45;24.54;101416.95;104194;1305;61750;-85
2022/03/24 07:42:49;;;;;;;;;;;;;;;20.46;24.27;101419.96;103977;1308;72237;-82
2022/03/24 07:45:18;;;;;;;;;;;;;;;20.45;24.28;101417.65;103903;1308;76237;-79
2022/03/24 07:48:03;;;;;;;;;;;;;;;20.45;24.32;101416.45;103913;1305;61298;-80
2022/03/24 07:50:39;;;;;;;;;;;;;;;20.42;24.19;101410.30;103953;1308;61418;-80
2022/03/24 07:53:19;;;;;;;;;;;;;;;20.40;24.13;101408.46;104533;1305;73075;-80
2022/03/24 07:55:48;;;;;;;;;;;;;;;20.39;24.23;101410.83;104217;1305;76351;-79
2022/03/24 07:58:17;;;;;;;;;;;;;;;20.36;24.22;101399.96;104357;1305;61658;-81
2022/03/24 08:00:43;;;;;;;;;;;;;;;20.29;24.17;101397.48;104385;1305;59656;-81
2022/03/24 08:03:09;;;;;;;;;;;;;;;20.20;24.22;101400.34;104558;1305;61397;-82
2022/03/24 08:05:35;;;;;;;;;;;;;;;20.11;24.30;101395.47;104443;1305;59932;-80
2022/03/24 08:08:09;;;;;;;;;;;;;;;20.10;24.50;101398.05;104255;1305;61311;-81
2022/03/24 08:10:44;;;;;;;;;;;;;;;20.13;24.60;101396.31;104514;1305;62049;-79
2022/03/24 08:13:13;;;;;;;;;;;;;;;20.15;24.57;101390.29;104320;1305;73549;-82
2022/03/24 08:15:38;;;;;;;;;;;;;;;20.17;24.67;101387.11;104030;1308;73606;-81
2022/03/24 08:18:05;;;;;;;;;;;;;;;20.19;24.71;101384.66;104232;1304;61870;-81
2022/03/24 08:20:31;;;;;;;;;;;;;;;20.20;24.61;101381.06;105300;1305;59249;-81
2022/03/24 08:22:56;;;;;;;;;;;;;;;20.21;24.69;101383.12;105372;1304;59420;-81
2022/03/24 08:25:22;;;;;;;;;;;;;;;20.22;24.70;101383.61;105165;1304;59228;-81
2022/03/24 08:27:47;;;;;;;;;;;;;;;20.23;24.70;101383.02;105317;1305;59525;-81
2022/03/24 08:30:12;;;;;;;;;;;;;;;20.24;24.72;101381.19;104753;1304;59526;-81
2022/03/24 08:32:38;;;;;;;;;;;;;;;20.26;24.55;101376.75;104500;1305;61281;-81
2022/03/24 08:35:04;;;;;;;;;;;;;;;20.29;24.68;101372.69;104473;1305;61310;-81
2022/03/24 08:37:33;;;;;;;;;;;;;;;20.31;24.60;101370.20;104489;1305;73760;-81
2022/03/24 08:39:58;;;;;;;;;;;;;;;20.33;24.53;101369.41;104406;1305;61204;-81
2022/03/24 08:42:24;;;;;;;;;;;;;;;20.34;24.55;101368.06;104383;1305;61363;-81
2022/03/24 08:44:49;;;;;;;;;;;;;;;20.35;24.45;101366.97;104444;1305;61492;-79
2022/03/24 08:47:15;;;;;;;;;;;;;;;20.35;24.47;101365.04;104563;1305;61356;-81
2022/03/24 08:49:43;;;;;;;;;;;;;;;20.35;24.51;101365.52;104624;1305;75339;-81
2022/03/24 08:52:09;;;;;;;;;;;;;;;20.34;24.73;101364.13;104570;1305;59510;-80
2022/03/24 08:54:37;;;;;;;;;;;;;;;20.34;24.79;101356.64;104571;1305;70445;-81
2022/03/24 08:57:05;;;;;;;;;;;;;;;20.29;24.59;101350.52;104471;1305;61368;-80
2022/03/24 08:59:30;;;;;;;;;;;;;;;20.18;24.44;101345.95;104637;1305;74758;-81
2022/03/24 09:01:57;;;;;;;;;;;;;;;20.14;24.38;101351.56;104480;1305;61323;-81
2022/03/24 09:04:26;;;;;;;;;;;;;;;20.10;24.40;101349.10;104453;1305;61301;-82
2022/03/24 09:06:52;;;;;;;;;;;;;;;20.05;24.32;101343.69;104353;1308;72655;-81
2022/03/24 09:09:18;;;;;;;;;;;;;;;20.00;24.54;101343.08;104481;1305;61157;-82
2022/03/24 09:11:46;;;;;;;;;;;;;;;19.98;24.74;101338.20;104607;1305;61321;-80
2022/03/24 09:14:12;;;;;;;;;;;;;;;19.97;24.86;101336.98;104684;1305;60474;-82
2022/03/24 09:16:41;;;;;;;;;;;;;;;19.99;24.91;101336.69;104673;1305;61598;-80
2022/03/24 09:19:07;;;;;;;;;;;;;;;20.00;24.97;101331.98;104686;1305;74326;-81
2022/03/24 09:21:32;;;;;;;;;;;;;;;20.03;25.20;101329.29;104518;1305;61272;-81
2022/03/24 09:23:58;;;;;;;;;;;;;;;20.03;25.13;101327.88;104618;1305;61291;-81
2022/03/24 09:26:24;;;;;;;;;;;;;;;19.98;24.94;101322.09;104861;1305;61092;-81
2022/03/24 09:28:52;;;;;;;;;;;;;;;19.99;25.09;101320.80;104659;1304;61423;-81
2022/03/24 09:31:20;;;;;;;;;;;;;;;20.02;25.23;101319.52;104392;1305;61319;-82
2022/03/24 09:33:46;;;;;;;;;;;;;;;20.03;25.04;101317.91;104502;1304;61227;-80
2022/03/24 09:36:19;;;;;;;;;;;;;;;19.98;24.83;101315.13;104254;1311;72784;-81
2022/03/24 09:38:45;;;;;;;;;;;;;;;19.96;24.79;101313.82;104236;1308;76077;-81
2022/03/24 09:41:10;;;;;;;;;;;;;;;19.95;24.67;101303.17;104238;1308;61503;-81
2022/03/24 09:43:45;;;;;;;;;;;;;;;19.92;24.50;101297.09;104288;1308;61496;-80
2022/03/24 09:46:10;;;;;;;;;;;;;;;19.91;24.41;101292.67;104236;1308;72622;-83
2022/03/24 09:48:36;;;;;;;;;;;;;;;19.91;24.53;101296.05;104208;1311;61591;-84
2022/03/24 09:51:05;;;;;;;;;;;;;;;19.92;24.51;101296.19;104042;1311;61089;-81
2022/03/24 09:53:39;;;;;;;;;;;;;;;19.95;24.48;101294.41;104066;1308;60486;-81
2022/03/24 09:56:10;;;;;;;;;;;;;;;19.96;24.37;101286.34;104425;1308;74016;-81
2022/03/24 09:58:36;;;;;;;;;;;;;;;19.94;24.23;101288.92;104456;1308;60157;-81
2022/03/24 10:01:01;;;;;;;;;;;;;;;19.89;24.33;101286.35;104454;1310;61003;-80
2022/03/24 10:03:26;;;;;;;;;;;;;;;19.90;24.30;101282.73;104301;1310;61294;-81
2022/03/24 10:05:53;;;;;;;;;;;;;;;19.92;24.42;101279.58;104406;1311;61333;-81
2022/03/24 10:08:20;;;;;;;;;;;;;;;19.93;24.42;101274.14;104530;1305;73820;-80
2022/03/24 10:10:45;;;;;;;;;;;;;;;19.95;24.31;101278.51;104506;1308;74051;-81
2022/03/24 10:13:11;;;;;;;;;;;;;;;19.94;24.29;101278.55;104463;1306;59729;-81
2022/03/24 10:15:37;;;;;;;;;;;;;;;19.93;24.16;101271.65;104484;1305;61111;-80
2022/03/24 10:18:03;;;;;;;;;;;;;;;19.93;23.94;101271.66;105116;1305;59765;-81
2022/03/24 10:20:28;;;;;;;;;;;;;;;19.94;23.97;101273.04;105148;1306;59397;-81
2022/03/24 10:23:04;;;;;;;;;;;;;;;19.96;24.03;101262.59;104955;1305;61253;-80
2022/03/24 10:25:31;;;;;;;;;;;;;;;19.98;24.03;101253.33;104456;1308;61332;-81
2022/03/24 10:28:04;;;;;;;;;;;;;;;19.99;23.79;101260.23;105274;1305;59408;-81
2022/03/24 10:30:46;;;;;;;;;;;;;;;19.96;23.65;101260.61;105059;1305;72875;-82
2022/03/24 10:33:33;;;;;;;;;;;;;;;19.96;23.76;101246.99;104579;1305;75550;-80
2022/03/24 10:36:09;;;;;;;;;;;;;;;19.99;23.69;101242.04;104482;1305;61486;-82
2022/03/24 10:38:36;;;;;;;;;;;;;;;20.00;23.78;101238.04;104535;1306;61289;-81
2022/03/24 10:41:16;;;;;;;;;;;;;;;20.00;23.49;101237.65;104396;1305;72636;-84
2022/03/24 10:43:51;;;;;;;;;;;;;;;19.95;23.24;101230.29;104307;1305;75124;-82
2022/03/24 10:46:22;;;;;;;;;;;;;;;19.96;23.47;101226.31;104339;1305;61242;-81
2022/03/24 10:49:32;;;;;;;;;;;;;;;19.97;23.38;101220.91;104369;1305;61174;-81
2022/03/24 10:52:09;;;;;;;;;;;;;;;19.94;23.09;101214.98;104260;1305;72069;-80
2022/03/24 10:54:38;;;;;;;;;;;;;;;19.92;22.82;101217.04;104199;1308;60159;-81
2022/03/24 10:57:06;;;;;;;;;;;;;;;19.91;22.62;101215.35;104646;1305;61235;-81
2022/03/24 10:59:39;;;;;;;;;;;;;;;19.86;22.30;101214.00;104463;1305;61145;-82
2022/03/24 11:02:05;;;;;;;;;;;;;;;19.86;22.45;101206.88;104422;1306;73243;-81
2022/03/24 11:04:31;;;;;;;;;;;;;;;19.87;22.36;101206.79;104547;1305;61398;-82
2022/03/24 11:06:59;;;;;;;;;;;;;;;19.86;22.24;101210.30;104409;1308;61704;-84
2022/03/24 11:09:44;;;;;;;;;;;;;;;19.89;22.63;101206.34;104456;1308;61310;-83
2022/03/24 11:12:26;;;;;;;;;;;;;;;19.96;23.02;101197.14;104468;1306;72918;-81
2022/03/24 11:14:54;;;;;;;;;;;;;;;20.00;23.04;101193.89;104455;1305;75879;-82
2022/03/24 11:17:28;;;;;;;;;;;;;;;19.97;22.50;101193.35;104486;1305;61512;-81
2022/03/24 11:20:07;;;;;;;;;;;;;;;19.92;22.26;101184.02;104422;1308;60377;-81
2022/03/24 11:22:53;;;;;;;;;;;;;;;19.95;22.36;101181.16;105290;1305;71642;-81
2022/03/24 11:25:20;;;;;;;;;;;;;;;19.93;21.92;101176.64;104574;1305;76552;-80
2022/03/24 11:27:46;;;;;;;;;;;;;;;19.88;21.77;101164.08;104480;1305;61281;-84
2022/03/24 11:30:29;;;;;;;;;;;;;;;19.86;21.51;101164.71;104480;1305;61905;-81
2022/03/24 11:32:55;;;;;;;;;;;;;;;19.88;21.67;101163.17;104431;1305;73904;-81
2022/03/24 11:35:34;;;;;;;;;;;;;;;19.94;21.84;101158.91;104503;1305;75248;-81
2022/03/24 11:38:03;;;;;;;;;;;;;;;19.96;21.41;101163.41;104540;1305;61554;-80
2022/03/24 11:40:46;;;;;;;;;;;;;;;19.92;21.26;101155.46;104575;1305;61171;-79
2022/03/24 11:43:14;;;;;;;;;;;;;;;19.92;21.23;101148.45;104519;1305;72725;-81
2022/03/24 11:45:54;;;;;;;;;;;;;;;19.98;21.59;101148.61;104741;1305;76098;-82
2022/03/24 11:48:33;;;;;;;;;;;;;;;20.02;21.37;101148.72;104991;1305;60468;-81
2022/03/24 11:50:58;;;;;;;;;;;;;;;20.06;21.43;101142.42;104640;1305;61096;-81
2022/03/24 11:53:27;;;;;;;;;;;;;;;20.07;21.44;101138.08;104425;1306;61280;-79
2022/03/24 11:55:58;;;;;;;;;;;;;;;20.09;21.51;101134.21;104401;1305;74816;-80
2022/03/24 11:58:31;;;;;;;;;;;;;;;20.09;21.41;101129.73;104805;1305;60150;-80
2022/03/24 12:00:56;;;;;;;;;;;;;;;20.07;21.20;101124.16;104863;1305;60442;-80
2022/03/24 12:03:58;;;;;;;;;;;;;;;20.04;21.04;101124.48;104626;1305;61378;-80
2022/03/24 12:06:46;;;;;;;;;;;;;;;20.04;21.29;101121.44;103972;1313;75962;-81
2022/03/24 12:09:13;;;;;;;;;;;;;;;20.03;21.28;101113.82;103884;1314;61136;-81
2022/03/24 12:11:39;;;;;;;;;;;;;;;20.02;21.30;101113.92;104010;1314;59589;-81
2022/03/24 12:14:09;;;;;;;;;;;;;;;20.03;21.35;101109.21;104188;1315;73426;-81
2022/03/24 12:16:44;;;;;;;;;;;;;;;20.03;21.33;101102.02;103928;1314;76311;-80
2022/03/24 12:19:28;;;;;;;;;;;;;;;20.05;21.42;101094.27;104175;1313;61150;-81
2022/03/24 12:21:57;;;;;;;;;;;;;;;20.07;21.41;101094.48;104055;1314;61507;-81
2022/03/24 12:24:22;;;;;;;;;;;;;;;20.07;21.30;101088.95;104019;1314;61318;-81
2022/03/24 12:26:52;;;;;;;;;;;;;;;20.09;21.54;101083.10;103988;1313;59501;-80
2022/03/24 12:29:20;;;;;;;;;;;;;;;20.13;21.62;101079.48;103851;1314;60285;-80
2022/03/24 12:31:57;;;;;;;;;;;;;;;20.16;21.71;101079.08;103953;1313;61312;-81
2022/03/24 12:34:32;;;;;;;;;;;;;;;20.20;21.82;101079.20;103995;1313;72790;-81
2022/03/24 12:37:00;;;;;;;;;;;;;;;20.22;21.76;101082.27;104082;1313;74854;-81
2022/03/24 12:39:30;;;;;;;;;;;;;;;20.20;21.58;101072.60;103941;1314;61169;-81
2022/03/24 12:42:05;;;;;;;;;;;;;;;20.17;21.60;101070.25;104564;1306;60422;-80
2022/03/24 12:45:10;;;;;;;;;;;;;;;20.17;21.70;101067.09;105446;1305;73224;-80
2022/03/24 12:47:44;;;;;;;;;;;;;;;20.15;21.37;101060.78;104977;1310;73683;-80
2022/03/24 12:50:12;;;;;;;;;;;;;;;20.15;21.38;101059.70;104814;1311;61302;-81
2022/03/24 12:52:57;;;;;;;;;;;;;;;20.14;21.30;101054.06;104570;1311;60168;-80
2022/03/24 12:55:24;;;;;;;;;;;;;;;20.14;21.32;101049.02;104035;1311;71812;-80
2022/03/24 12:58:10;;;;;;;;;;;;;;;20.15;21.52;101045.23;104205;1311;75810;-81
2022/03/24 13:00:43;;;;;;;;;;;;;;;20.17;21.60;101039.19;105078;1310;61690;-80
2022/03/24 13:03:09;;;;;;;;;;;;;;;20.19;21.68;101037.44;104501;1313;61460;-80
2022/03/24 13:05:38;;;;;;;;;;;;;;;20.21;21.73;101036.05;103974;1314;61484;-80
2022/03/24 13:08:07;;;;;;;;;;;;;;;20.24;21.66;101029.96;103971;1313;74860;-83
2022/03/24 13:10:40;;;;;;;;;;;;;;;20.26;21.64;101028.42;104111;1313;61487;-81
2022/03/24 13:13:09;;;;;;;;;;;;;;;20.28;21.72;101020.28;104150;1311;61270;-82
2022/03/24 13:15:37;;;;;;;;;;;;;;;20.29;21.72;101007.90;104515;1313;72958;-81
2022/03/24 13:18:08;;;;;;;;;;;;;;;20.29;21.61;101015.72;104122;1313;75721;-82
2022/03/24 13:20:47;;;;;;;;;;;;;;;20.28;21.63;101013.30;104075;1312;61467;-82
2022/03/24 13:23:20;;;;;;;;;;;;;;;20.28;21.52;101009.73;104492;1306;61182;-81
2022/03/24 13:25:52;;;;;;;;;;;;;;;20.27;21.25;101007.11;104399;1306;72837;-86
2022/03/24 13:28:27;;;;;;;;;;;;;;;20.27;21.38;101007.96;104583;1305;74717;-83
2022/03/24 13:31:11;;;;;;;;;;;;;;;;;;;;;
2022/03/24 13:33:52;;;;;;;;;;;;;;;20.26;21.08;100994.30;104437;1305;61530;-81
2022/03/24 13:36:24;;;;;;;;;;;;;;;20.24;21.02;100988.84;104434;1305;73094;-81
2022/03/24 13:38:50;;;;;;;;;;;;;;;20.23;20.98;100983.73;104270;1307;74884;-81